createdAt,value
2023-04-21T13:48:30.480Z,30.8
2023-04-21T13:50:30.451Z,31.1
2023-04-21T13:52:30.467Z,31.0
2023-04-21T13:54:30.691Z,30.8
2023-04-21T13:56:30.469Z,31.0
2023-04-21T13:58:30.455Z,31.5
2023-04-21T14:00:30.464Z,32.2
2023-04-21T14:02:30.633Z,32.5
2023-04-21T14:04:30.542Z,32.3
2023-04-21T14:06:30.466Z,32.4
2023-04-21T14:09:30.592Z,32.4
2023-04-21T14:11:30.492Z,32.1
2023-04-21T14:13:37.343Z,32.1
2023-04-21T14:15:30.501Z,32.2
2023-04-21T14:17:30.515Z,32.4
2023-04-21T14:19:30.742Z,32.2
2023-04-21T14:21:30.467Z,32.4
2023-04-21T14:23:30.554Z,32.5
2023-04-21T14:25:30.468Z,32.0
2023-04-21T14:27:30.475Z,31.7
2023-04-21T14:29:30.540Z,31.5
2023-04-21T14:31:30.568Z,31.0
2023-04-21T14:33:30.507Z,31.4
2023-04-21T14:35:30.486Z,31.4
2023-04-21T14:37:30.581Z,31.4
2023-04-21T14:39:30.515Z,30.9
2023-04-21T14:41:30.532Z,30.7
2023-04-21T14:43:30.488Z,30.7
2023-04-21T14:45:30.559Z,30.8
2023-04-21T14:47:30.553Z,30.6
2023-04-21T14:49:30.708Z,30.9
2023-04-21T14:51:31.532Z,31.1
2023-04-21T14:53:30.541Z,31.2
2023-04-21T14:55:30.640Z,31.0
2023-04-21T14:57:30.517Z,30.9
2023-04-21T14:59:30.537Z,31.1
2023-04-21T15:01:30.642Z,30.5
2023-04-21T15:03:30.606Z,30.4
2023-04-21T15:05:30.540Z,30.4
2023-04-21T15:07:30.534Z,30.5
2023-04-21T15:09:30.555Z,30.7
2023-04-21T15:11:30.550Z,31.3
2023-04-21T15:13:30.582Z,31.5
2023-04-21T15:15:30.529Z,31.6
2023-04-21T15:17:30.532Z,31.5
2023-04-21T15:19:30.513Z,31.4
2023-04-21T15:21:30.522Z,31.5
2023-04-21T15:23:30.828Z,31.1
2023-04-21T15:25:30.535Z,31.2
2023-04-21T15:27:30.604Z,31.5
2023-04-21T15:29:30.569Z,31.6
2023-04-21T15:31:30.545Z,31.9
2023-04-21T15:33:30.554Z,31.5
2023-04-21T15:35:30.523Z,31.8
2023-04-21T15:37:30.606Z,32.0
2023-04-21T15:39:30.565Z,32.2
2023-04-21T15:41:30.540Z,32.2
2023-04-21T15:43:30.573Z,32.3
2023-04-21T15:45:30.548Z,32.6
2023-04-21T15:47:30.628Z,32.4
2023-04-21T15:49:30.567Z,32.5
2023-04-21T15:51:30.575Z,32.2
2023-04-21T15:53:30.591Z,31.7
2023-04-21T15:55:30.709Z,31.7
2023-04-21T15:57:30.584Z,31.5
2023-04-21T15:59:30.764Z,31.6
2023-04-21T16:01:30.662Z,31.8
2023-04-21T16:03:30.754Z,31.9
2023-04-21T16:05:30.778Z,32.1
2023-04-21T16:07:30.581Z,32.5
2023-04-21T16:09:30.605Z,32.7
2023-04-21T16:11:30.601Z,32.3
2023-04-21T16:13:30.578Z,32.3
2023-04-21T16:15:30.736Z,32.5
2023-04-21T16:17:30.671Z,32.6
2023-04-21T16:19:30.700Z,33.0
2023-04-21T16:21:30.606Z,33.1
2023-04-21T16:23:30.588Z,33.7
2023-04-21T16:25:30.806Z,33.3
2023-04-21T16:27:30.636Z,33.4
2023-04-21T16:29:30.655Z,33.5
2023-04-21T16:31:30.665Z,33.2
2023-04-21T16:33:30.590Z,33.6
2023-04-21T16:35:30.647Z,33.9
2023-04-21T16:37:30.671Z,34.5
2023-04-21T16:39:30.620Z,34.5
2023-04-21T16:41:30.707Z,34.5
2023-04-21T16:43:30.658Z,34.9
2023-04-21T16:45:30.617Z,34.5
2023-04-21T16:47:30.659Z,34.3
2023-04-21T16:49:30.580Z,34.3
2023-04-21T16:51:30.578Z,34.6
2023-04-21T16:53:30.614Z,34.7
2023-04-21T16:55:30.620Z,34.6
2023-04-21T16:57:30.598Z,34.9
2023-04-21T16:59:31.538Z,34.1
2023-04-21T17:01:30.664Z,34.3
2023-04-21T17:03:30.796Z,34.4
2023-04-21T17:05:30.661Z,34.3
2023-04-21T17:07:30.664Z,34.2
2023-04-21T17:09:30.668Z,34.0
2023-04-21T17:11:30.687Z,34.4
2023-04-21T17:13:30.700Z,34.0
2023-04-21T17:15:30.739Z,33.5
2023-04-21T17:17:30.682Z,33.5
2023-04-21T17:19:30.685Z,33.8
2023-04-21T17:22:16.972Z,34.2
2023-04-21T17:24:17.183Z,34.7
2023-04-21T17:26:16.552Z,35.0
2023-04-21T17:28:16.359Z,35.6
2023-04-21T17:30:16.546Z,35.9
2023-04-21T17:32:16.981Z,36.1
2023-04-21T17:34:17.396Z,36.2
2023-04-21T17:36:16.416Z,35.5
2023-04-21T17:38:16.722Z,34.9
2023-04-21T17:40:16.900Z,35.3
2023-04-21T17:42:20.048Z,35.4
2023-04-21T17:44:16.365Z,35.3
2023-04-21T17:46:16.448Z,35.8
2023-04-21T17:48:16.477Z,35.8
2023-04-21T17:50:16.434Z,35.9
2023-04-21T17:52:17.092Z,35.9
2023-04-21T17:54:16.531Z,35.8
2023-04-21T17:56:16.452Z,36.7
2023-04-21T17:58:16.776Z,36.5
2023-04-21T18:00:17.406Z,37.1
2023-04-21T18:02:16.665Z,37.7
2023-04-21T18:04:16.653Z,37.8
2023-04-21T18:06:16.581Z,37.4
2023-04-21T18:08:17.546Z,37.4
2023-04-21T18:10:16.504Z,37.7
2023-04-21T18:12:18.581Z,38.0
2023-04-21T18:14:16.416Z,38.4
2023-04-21T18:16:16.414Z,39.0
2023-04-21T18:18:16.425Z,39.2
2023-04-21T18:20:16.390Z,38.9
2023-04-21T18:22:16.575Z,38.2
2023-04-21T18:24:17.968Z,37.9
2023-04-21T18:26:28.377Z,37.8
2023-04-21T18:28:28.526Z,37.2
2023-04-21T18:30:22.106Z,37.3
2023-04-21T18:32:29.143Z,36.9
2023-04-21T18:34:16.472Z,37.2
2023-04-21T18:36:16.370Z,37.5
2023-04-21T18:38:16.349Z,37.3
2023-04-21T18:40:16.356Z,37.7
2023-04-21T18:42:16.359Z,38.0
2023-04-21T18:44:16.372Z,38.3
2023-04-21T18:46:20.526Z,38.2
2023-04-21T18:48:16.401Z,38.3
2023-04-21T18:50:16.438Z,37.8
2023-04-21T18:52:16.408Z,37.8
2023-04-21T18:54:16.510Z,37.6
2023-04-21T18:56:16.628Z,37.2
2023-04-21T18:58:16.454Z,37.4
2023-04-21T19:00:16.444Z,37.1
2023-04-21T19:02:16.683Z,37.0
2023-04-21T19:04:16.582Z,37.1
2023-04-21T19:06:17.576Z,37.3
2023-04-21T19:08:18.264Z,37.3
2023-04-21T19:10:16.453Z,37.0
2023-04-21T19:12:16.417Z,36.9
2023-04-21T19:14:16.454Z,37.1
2023-04-21T19:16:16.808Z,37.0
2023-04-21T19:18:16.377Z,37.1
2023-04-21T19:20:16.617Z,37.8
2023-04-21T19:22:16.433Z,38.2
2023-04-21T19:24:16.378Z,38.3
2023-04-21T19:26:16.503Z,38.2
2023-04-21T19:28:16.503Z,38.8
2023-04-21T19:30:16.407Z,38.7
2023-04-21T19:32:16.465Z,39.1
2023-04-21T19:34:18.613Z,38.6
2023-04-21T19:36:16.418Z,38.3
2023-04-21T19:38:16.564Z,38.8
2023-04-21T19:40:16.491Z,38.5
2023-04-21T19:42:20.639Z,38.5
2023-04-21T19:44:16.903Z,38.2
2023-04-21T19:46:16.562Z,37.9
2023-04-21T19:48:16.601Z,38.1
2023-04-21T19:50:16.428Z,38.7
2023-04-21T19:54:16.452Z,39.7
2023-04-21T19:56:17.348Z,39.5
2023-04-21T19:58:28.564Z,39.5
2023-04-21T20:00:16.544Z,40.0
2023-04-21T20:04:16.576Z,39.9
2023-04-21T20:08:16.574Z,41.1
2023-04-21T20:10:16.528Z,41.0
2023-04-21T20:14:16.416Z,40.9
2023-04-21T20:16:27.930Z,40.5
2023-04-21T20:18:28.043Z,41.0
2023-04-21T20:20:27.966Z,40.5
2023-04-21T20:22:27.991Z,40.9
2023-04-21T20:24:27.886Z,41.5
2023-04-21T20:26:27.857Z,41.9
2023-04-21T20:28:27.934Z,41.7
2023-04-21T20:30:27.935Z,42.5
2023-04-21T20:32:27.889Z,43.0
2023-04-21T20:34:27.962Z,44.0
2023-04-21T20:36:27.881Z,45.4
2023-04-21T20:38:27.889Z,47.4
2023-04-21T20:40:27.890Z,47.3
2023-04-21T20:42:29.288Z,48.1
2023-04-21T20:44:27.930Z,49.0
2023-04-21T20:46:27.889Z,49.0
2023-04-21T20:48:28.173Z,49.0
2023-04-21T20:50:27.905Z,49.0
2023-04-21T20:52:28.019Z,49.8
2023-04-21T20:54:28.220Z,53.2
2023-04-21T20:56:28.757Z,59.4
2023-04-21T20:58:27.930Z,69.1
2023-04-21T21:00:28.149Z,68.6
2023-04-21T21:02:28.102Z,68.2
2023-04-21T21:04:29.494Z,67.6
2023-04-21T21:06:27.921Z,67.5
2023-04-21T21:08:28.051Z,66.3
2023-04-21T21:10:27.925Z,66.3
2023-04-21T21:12:28.040Z,66.5
2023-04-21T21:14:27.958Z,66.8
2023-04-21T21:16:28.068Z,67.5
2023-04-21T21:18:27.919Z,66.9
2023-04-21T21:20:28.341Z,66.5
2023-04-21T21:22:28.130Z,66.1
2023-04-21T21:24:27.932Z,65.6
2023-04-21T21:26:27.972Z,65.4
2023-04-21T21:28:28.680Z,65.1
2023-04-21T21:30:31.781Z,64.2
2023-04-21T21:32:27.938Z,63.8
2023-04-21T21:34:33.608Z,63.2
2023-04-21T21:36:27.959Z,61.8
2023-04-21T21:39:28.026Z,59.9
2023-04-21T21:41:28.419Z,59.3
2023-04-21T21:43:28.031Z,58.2
2023-04-21T21:45:27.941Z,57.3
2023-04-21T21:47:28.070Z,57.2
2023-04-21T21:49:27.918Z,57.1
2023-04-21T21:51:30.174Z,56.6
2023-04-21T21:53:27.973Z,54.1
2023-04-21T21:55:32.982Z,49.8
2023-04-21T21:57:27.936Z,42.8
2023-04-21T21:59:28.060Z,36.7
2023-04-21T22:01:30.785Z,36.8
2023-04-21T22:03:28.235Z,36.9
2023-04-21T22:05:28.114Z,37.3
2023-04-21T22:07:28.345Z,37.5
2023-04-21T22:09:27.941Z,37.5
2023-04-21T22:11:28.196Z,37.2
2023-04-21T22:13:28.002Z,36.9
2023-04-21T22:15:30.853Z,36.3
2023-04-21T22:17:28.169Z,35.6
2023-04-21T22:19:27.928Z,35.5
2023-04-21T22:21:27.940Z,35.2
2023-04-21T22:23:27.951Z,34.9
2023-04-21T22:25:27.960Z,34.6
2023-04-21T22:27:28.186Z,34.8
2023-04-21T22:29:27.990Z,34.1
2023-04-21T22:31:27.984Z,34.0
2023-04-21T22:33:27.983Z,33.7
2023-04-21T22:35:27.922Z,34.0
2023-04-21T22:37:29.836Z,34.0
2023-04-21T22:39:28.049Z,34.1
2023-04-21T22:41:27.990Z,34.2
2023-04-21T22:43:28.444Z,34.9
2023-04-21T22:45:28.109Z,35.0
2023-04-21T22:47:30.031Z,35.1
2023-04-21T22:49:30.281Z,35.4
2023-04-21T22:51:28.051Z,35.0
2023-04-21T22:53:27.945Z,34.8
2023-04-21T22:55:32.914Z,34.3
2023-04-21T22:57:32.014Z,33.9
2023-04-21T22:59:28.588Z,34.1
2023-04-21T23:01:28.152Z,34.0
2023-04-21T23:03:28.231Z,34.3
2023-04-21T23:05:27.957Z,33.9
2023-04-21T23:07:28.003Z,33.5
2023-04-21T23:09:28.236Z,33.4
2023-04-21T23:11:28.002Z,33.8
2023-04-21T23:13:28.086Z,33.7
2023-04-21T23:15:28.136Z,34.0
2023-04-21T23:17:28.080Z,33.9
2023-04-21T23:19:28.110Z,33.9
2023-04-21T23:21:28.036Z,34.8
2023-04-21T23:23:27.974Z,35.4
2023-04-21T23:25:28.078Z,35.5
2023-04-21T23:27:27.972Z,35.3
2023-04-21T23:29:28.045Z,36.1
2023-04-21T23:31:28.097Z,36.0
2023-04-21T23:33:28.032Z,35.9
2023-04-21T23:35:28.017Z,35.4
2023-04-21T23:37:28.301Z,35.6
2023-04-21T23:39:27.998Z,35.2
2023-04-21T23:41:28.021Z,34.9
2023-04-21T23:43:27.978Z,34.5
2023-04-21T23:45:28.117Z,34.3
2023-04-21T23:47:28.124Z,34.2
2023-04-21T23:49:31.741Z,34.0
2023-04-21T23:51:28.093Z,34.2
2023-04-21T23:53:28.070Z,34.7
2023-04-21T23:55:28.107Z,35.0
2023-04-21T23:57:28.048Z,35.0
2023-04-21T23:59:28.097Z,34.8
